KMFV

Accomack County Airport

Melfa, Virginia, USA
METAR KMFV 231015Z AUTO 05009KT 5SM BR OVC005 07/07 A3053 RMK AO2 T00730070
Observed Flight Rules
Feb-23 @ 10:15 UTC (18 minutes ago) Instrument Flight Rules
Wind Visibility Clouds Conditions
50° at 9 knots 5 miles
  • Overcast at 500' AGL
  • Mist
Temperatures Readings
Current 7°C / 45°F
Dewpoint 7°C / 45°F
Humidity 100%
Altimeter 30.53" Hg
Pressure 1034 hPa
Elevation 15
METAR KMFV 231015Z AUTO 05009KT 5SM BR OVC005 07/07 A3053 RMK AO2 T00730070
Observed Flight Rules
Feb-23 @ 10:15 UTC
(18 minutes ago)
IFR
Wind Visibility
50° at 9 knots 5 miles
Clouds
  • Overcast at 500' AGL
Conditions
  • Mist
Temperature Dewpoint
7°C / 45°F 7°C / 45°F
Humidity Altimeter Pressure
100% 30.53" Hg 1034 hPa